createdAt,value
2022-08-07T08:07:42.554Z,97130.63
2022-08-07T08:10:05.870Z,97132.06
2022-08-07T08:12:10.497Z,97132.66
2022-08-07T08:14:14.532Z,97124.56
2022-08-07T08:16:24.984Z,97127.84
2022-08-07T08:18:29.996Z,97135.19
2022-08-07T08:20:36.586Z,97129.50
2022-08-07T08:23:01.776Z,97134.91
2022-08-07T08:25:41.786Z,97128.69
2022-08-07T08:27:56.236Z,97130.31
2022-08-07T08:30:08.781Z,97127.59
2022-08-07T08:32:25.233Z,97132.47
2022-08-07T08:34:29.794Z,97130.56
2022-08-07T08:36:35.065Z,97135.97
2022-08-07T08:38:42.968Z,97127.84
2022-08-07T08:40:54.759Z,97128.09
2022-08-07T08:43:04.716Z,97138.06
2022-08-07T08:45:15.531Z,97132.66
2022-08-07T08:47:25.750Z,97136.41
2022-08-07T08:49:46.576Z,97131.28
2022-08-07T08:52:14.128Z,97123.41
2022-08-07T08:54:25.081Z,97129.09
2022-08-07T08:56:34.038Z,97133.69
2022-08-07T08:58:47.569Z,97130.47
2022-08-07T09:01:01.098Z,97130.44
2022-08-07T09:03:48.041Z,97126.09
2022-08-07T09:05:56.882Z,97130.16
2022-08-07T09:08:17.826Z,97129.31
2022-08-07T09:10:35.304Z,97126.88
2022-08-07T09:12:53.043Z,97128.25
2022-08-07T09:16:21.840Z,97132.53
2022-08-07T09:18:00.385Z,97121.72
2022-08-07T09:20:35.589Z,97124.44
2022-08-07T09:24:30.715Z,97124.13
2022-08-07T09:25:24.237Z,97124.66
2022-08-07T09:27:54.455Z,97123.31
2022-08-07T09:30:08.571Z,97128.16
2022-08-07T09:32:23.755Z,97128.16
2022-08-07T09:34:38.983Z,97126.50
2022-08-07T09:36:52.582Z,97131.38
2022-08-07T09:39:11.408Z,97125.41
2022-08-07T09:41:58.496Z,97123.22
2022-08-07T09:44:28.170Z,97128.06
2022-08-07T09:47:51.542Z,97119.13
2022-08-07T09:50:02.235Z,97118.84
2022-08-07T09:52:15.670Z,97124.78
2022-08-07T09:54:28.386Z,97128.56
2022-08-07T09:56:59.629Z,97126.38
2022-08-07T09:59:22.076Z,97120.69
2022-08-07T10:01:51.762Z,97126.31
2022-08-07T10:04:13.920Z,97115.75
2022-08-07T10:06:36.368Z,97118.16
2022-08-07T10:08:49.520Z,97110.59
2022-08-07T10:11:59.943Z,97115.44
2022-08-07T10:14:00.958Z,97114.34
2022-08-07T10:16:30.549Z,97111.34
2022-08-07T10:18:52.928Z,97116.47
2022-08-07T10:21:19.891Z,97108.66
2022-08-07T10:24:05.222Z,97108.66
2022-08-07T10:26:27.483Z,97107.81
2022-08-07T10:28:54.060Z,97107.56
2022-08-07T10:31:17.727Z,97106.69
2022-08-07T10:34:05.079Z,97109.63
2022-08-07T10:36:43.769Z,97107.72
2022-08-07T10:38:59.225Z,97104.47
2022-08-07T10:41:10.551Z,97099.06
2022-08-07T10:43:19.313Z,97093.66
2022-08-07T10:45:45.247Z,97095.78
2022-08-07T10:48:12.651Z,97093.59
2022-08-07T10:50:26.624Z,97089.78
2022-08-07T10:52:40.067Z,97095.47
2022-08-07T10:55:01.599Z,97093.56
2022-08-07T10:57:16.434Z,97094.41
2022-08-07T10:59:37.104Z,97091.97
2022-08-07T11:01:52.098Z,97084.66
2022-08-07T11:04:31.504Z,97091.38
2022-08-07T11:06:45.030Z,97076.69
2022-08-07T11:09:00.859Z,97076.66
2022-08-07T11:11:10.466Z,97079.59
2022-08-07T11:14:42.449Z,97082.53
2022-08-07T11:15:54.409Z,97072.22
2022-08-07T11:18:04.573Z,97075.44
2022-08-07T11:20:09.864Z,97076.19
2022-08-07T11:22:33.279Z,97079.69
2022-08-07T11:24:52.896Z,97075.88
2022-08-07T11:27:03.074Z,97076.69
2022-08-07T11:29:13.174Z,97069.34
2022-08-07T11:31:42.089Z,97069.06
2022-08-07T11:33:59.936Z,97068.50
2022-08-07T11:36:14.439Z,97067.66
2022-08-07T11:38:29.117Z,97068.19
2022-08-07T11:40:49.458Z,97063.56
2022-08-07T11:42:59.988Z,97062.97
2022-08-07T11:45:20.461Z,97065.41
2022-08-07T11:47:39.149Z,97068.63
2022-08-07T11:50:32.692Z,97062.38
2022-08-07T11:52:47.001Z,97064.84
2022-08-07T11:55:12.901Z,97063.75
2022-08-07T11:57:58.493Z,97065.88
2022-08-07T12:00:18.424Z,97073.94
2022-08-07T12:02:35.064Z,97056.28
2022-08-07T12:04:57.403Z,97060.91
2022-08-07T12:07:17.250Z,97057.91
2022-08-07T12:09:36.234Z,97065.78
2022-08-07T12:12:09.190Z,97062.69
2022-08-07T12:14:14.503Z,97064.38
2022-08-07T12:16:30.657Z,97056.00
2022-08-07T12:18:37.819Z,97048.09
2022-08-07T12:20:54.074Z,97061.06
2022-08-07T12:24:04.921Z,97055.66
2022-08-07T12:26:05.853Z,97039.91
2022-08-07T12:28:31.276Z,97048.28
2022-08-07T12:30:38.254Z,97053.41
2022-08-07T12:32:49.194Z,97047.41
2022-08-07T12:34:56.022Z,97049.00
2022-08-07T12:37:01.716Z,97049.81
2022-08-07T12:39:42.698Z,97043.06
2022-08-07T12:41:49.076Z,97046.31
2022-08-07T12:44:04.438Z,97044.09
2022-08-07T12:46:26.265Z,97039.50
2022-08-07T12:48:52.408Z,97041.63
2022-08-07T12:51:12.926Z,97037.25
2022-08-07T12:53:27.424Z,97039.66
2022-08-07T12:55:41.450Z,97037.53
2022-08-07T12:58:02.170Z,97026.69
2022-08-07T13:00:16.301Z,97031.00
2022-08-07T13:02:40.691Z,97025.59
2022-08-07T13:05:01.700Z,97027.19
2022-08-07T13:08:12.773Z,97029.41
2022-08-07T13:10:28.777Z,97027.78
2022-08-07T13:12:37.163Z,97023.97
2022-08-07T13:14:52.655Z,97021.78
2022-08-07T13:17:07.067Z,97018.78
2022-08-07T13:19:25.193Z,97012.78
2022-08-07T13:21:54.916Z,97015.72
2022-08-07T13:24:11.482Z,97014.59
2022-08-07T13:26:18.504Z,97011.09
2022-08-07T13:28:29.851Z,97008.44
2022-08-07T13:30:40.344Z,97002.50
2022-08-07T13:32:51.301Z,97001.69
2022-08-07T13:35:08.515Z,96997.88
2022-08-07T13:37:22.773Z,96998.94
2022-08-07T13:40:33.181Z,96992.09
2022-08-07T13:42:00.130Z,96986.97
2022-08-07T13:44:05.200Z,96992.91
2022-08-07T13:46:23.233Z,96985.88
2022-08-07T13:48:35.187Z,96986.19
2022-08-07T13:50:44.756Z,96984.78
2022-08-07T13:53:03.981Z,96986.59
2022-08-07T13:55:19.680Z,96987.13
2022-08-07T13:57:37.686Z,96991.72
2022-08-07T13:59:45.484Z,96980.31
2022-08-07T14:02:03.473Z,96975.41
2022-08-07T14:04:11.820Z,96977.50
2022-08-07T14:06:16.337Z,96978.09
2022-08-07T14:08:22.389Z,96971.06
2022-08-07T14:10:28.199Z,96974.81
2022-08-07T14:12:41.521Z,96972.91
2022-08-07T14:14:52.473Z,96972.69
2022-08-07T14:16:57.644Z,96971.06
2022-08-07T14:19:04.655Z,96982.44
2022-08-07T14:21:20.895Z,96977.00
2022-08-07T14:24:00.129Z,96978.03
2022-08-07T14:26:07.703Z,96976.91
2022-08-07T14:28:13.748Z,96975.00
2022-08-07T14:32:45.734Z,96973.69
2022-08-07T14:34:52.573Z,96962.28
2022-08-07T14:36:57.781Z,96964.41
2022-08-07T14:39:03.286Z,96972.31
2022-08-07T14:41:12.331Z,96972.09
2022-08-07T14:43:58.901Z,96972.38
2022-08-07T14:45:49.456Z,96964.03
2022-08-07T14:47:58.941Z,96965.06
2022-08-07T14:50:11.482Z,96964.47
2022-08-07T14:52:24.489Z,96976.13
2022-08-07T14:56:56.072Z,96961.19
2022-08-07T14:59:04.514Z,96964.91
2022-08-07T15:01:22.714Z,96964.63
2022-08-07T15:03:52.225Z,96967.56
2022-08-07T15:05:55.091Z,96970.56
2022-08-07T15:08:12.607Z,96964.34
2022-08-07T15:10:26.447Z,96966.50
2022-08-07T15:13:06.638Z,96971.63
2022-08-07T15:17:55.511Z,96970.63
2022-08-07T15:20:32.822Z,96967.13
2022-08-07T15:22:31.461Z,96963.59
2022-08-07T15:27:09.853Z,96967.13
2022-08-07T15:30:09.088Z,96970.34
2022-08-07T15:32:01.316Z,96969.75
2022-08-07T15:34:06.255Z,96965.94
2022-08-07T15:37:02.430Z,96973.28
2022-08-07T15:38:51.637Z,96962.44
2022-08-07T15:41:24.422Z,96961.31
2022-08-07T15:43:53.107Z,96969.47
2022-08-07T15:46:32.237Z,96961.63
2022-08-07T15:48:32.634Z,96964.56
2022-08-07T15:51:08.836Z,96955.34
2022-08-07T15:53:06.520Z,96962.06
2022-08-07T15:55:16.333Z,96959.88
2022-08-07T15:57:39.672Z,96953.63
2022-08-07T15:59:52.334Z,96960.38
2022-08-07T16:02:02.890Z,96964.19
2022-08-07T16:04:15.107Z,96964.78
2022-08-07T16:06:28.491Z,96955.09
2022-08-07T16:08:38.262Z,96955.69
2022-08-07T16:10:47.237Z,96957.66
2022-08-07T16:13:17.767Z,96953.53
2022-08-07T16:15:57.724Z,96952.25
2022-08-07T16:18:10.823Z,96952.81
2022-08-07T16:20:33.066Z,96956.13
2022-08-07T16:22:54.370Z,96951.50
2022-08-07T16:25:07.551Z,96950.91
2022-08-07T16:27:20.822Z,96941.44
2022-08-07T16:30:11.459Z,96951.19
2022-08-07T16:32:02.187Z,96944.97
2022-08-07T16:34:22.065Z,96951.69
2022-08-07T16:37:02.376Z,96949.28
2022-08-07T16:39:33.775Z,96952.00
2022-08-07T16:42:15.766Z,96950.09
2022-08-07T16:45:07.249Z,96948.72
2022-08-07T16:47:27.367Z,96953.03
2022-08-07T16:50:27.194Z,96945.41
2022-08-07T16:52:57.532Z,96949.97
2022-08-07T16:55:14.986Z,96955.91
2022-08-07T16:58:03.041Z,96958.13
2022-08-07T17:00:15.055Z,96961.13
2022-08-07T17:02:53.714Z,96956.19
2022-08-07T17:06:19.850Z,96960.53
2022-08-07T17:07:55.521Z,96959.72
2022-08-07T17:10:09.243Z,96947.25
2022-08-07T17:12:44.330Z,96949.66
2022-08-07T17:14:54.719Z,96953.50
2022-08-07T17:17:01.733Z,96945.66
2022-08-07T17:19:15.741Z,96944.84
2022-08-07T17:21:23.555Z,96945.41
2022-08-07T17:23:41.674Z,96941.38
2022-08-07T17:25:57.214Z,96946.56
2022-08-07T17:28:06.565Z,96947.09
2022-08-07T17:30:20.262Z,96948.72
2022-08-07T17:32:52.343Z,96954.66
2022-08-07T17:35:51.019Z,96955.00
2022-08-07T17:38:06.801Z,96953.09
2022-08-07T17:40:08.970Z,96960.66
2022-08-07T17:42:28.392Z,96959.28
2022-08-07T17:44:49.560Z,96957.66
2022-08-07T17:46:58.014Z,96961.97
2022-08-07T17:49:09.398Z,96959.56
2022-08-07T17:51:21.332Z,96973.94
2022-08-07T17:54:00.188Z,96967.16
2022-08-07T17:56:06.930Z,96956.91
2022-08-07T17:58:30.675Z,96969.09
2022-08-07T18:00:48.865Z,96973.13
2022-08-07T18:02:56.932Z,96961.97
2022-08-07T18:05:21.785Z,96971.16
2022-08-07T18:07:38.076Z,96963.84
2022-08-07T18:10:06.349Z,96970.56
2022-08-07T18:12:30.319Z,96974.09
2022-08-07T18:14:46.072Z,96971.69
2022-08-07T18:16:58.370Z,96989.88
2022-08-07T18:21:12.396Z,96977.97
2022-08-07T18:21:57.825Z,96972.53
2022-08-07T18:24:07.040Z,96969.75
2022-08-07T18:26:16.389Z,96985.47
2022-08-07T18:28:35.460Z,96980.84
2022-08-07T18:30:50.310Z,96980.06
2022-08-07T18:33:30.159Z,96979.50
2022-08-07T18:35:51.875Z,96980.38
2022-08-07T18:38:56.989Z,96985.00
2022-08-07T18:41:08.001Z,96986.34
2022-08-07T18:43:15.974Z,96991.47
2022-08-07T18:45:43.595Z,97000.19
2022-08-07T18:48:01.484Z,96984.25
2022-08-07T18:50:45.681Z,96990.78
2022-08-07T18:53:05.986Z,96998.41
2022-08-07T18:55:42.663Z,96996.81
2022-08-07T18:57:59.829Z,96986.31
2022-08-07T19:00:32.483Z,97003.63
2022-08-07T19:02:42.399Z,97007.44
2022-08-07T19:05:15.444Z,97009.25
2022-08-07T19:07:34.980Z,97010.88
2022-08-07T19:09:55.772Z,97005.16
2022-08-07T19:12:19.537Z,97020.63
2022-08-07T19:14:40.457Z,97011.69
2022-08-07T19:17:07.832Z,97025.84
2022-08-07T19:19:19.831Z,97018.28
2022-08-07T19:21:47.426Z,97029.47
2022-08-07T19:24:06.297Z,97024.44
2022-08-07T19:26:24.644Z,97029.63
2022-08-07T19:30:53.832Z,97041.63
2022-08-07T19:31:37.384Z,97034.94
2022-08-07T19:33:41.934Z,97027.44
2022-08-07T19:35:54.514Z,97024.97
2022-08-07T19:38:01.045Z,97037.16
2022-08-07T19:40:08.334Z,97040.94
2022-08-07T19:42:24.841Z,97036.09
2022-08-07T19:44:45.396Z,97035.03
2022-08-07T19:47:03.424Z,97030.97
2022-08-07T19:49:08.910Z,97031.25
2022-08-07T19:51:19.203Z,97039.34
2022-08-07T19:54:32.589Z,97038.28
2022-08-07T19:55:57.861Z,97035.06
2022-08-07T19:58:13.436Z,97035.88
2022-08-07T20:00:29.330Z,97046.41
2022-08-07T20:02:38.925Z,97039.09
2022-08-07T20:04:45.206Z,97042.09
2022-08-07T20:06:55.249Z,97039.47
2022-08-07T20:09:01.751Z,97035.13
2022-08-07T20:11:12.266Z,97041.66
2022-08-07T20:13:26.757Z,97038.69
2022-08-07T20:15:37.229Z,97027.88
2022-08-07T20:17:43.653Z,97030.94
2022-08-07T20:19:58.517Z,97027.41
2022-08-07T20:22:03.374Z,97023.38
2022-08-07T20:24:15.899Z,97015.78
2022-08-07T20:26:29.874Z,97020.75
2022-08-07T20:28:43.817Z,97011.91
2022-08-07T20:30:48.549Z,97019.50
2022-08-07T20:32:58.406Z,97023.00
2022-08-07T20:35:07.861Z,97011.13
2022-08-07T20:37:12.337Z,97016.56
2022-08-07T20:40:03.342Z,97019.38
2022-08-07T20:41:50.519Z,97004.84
2022-08-07T20:43:57.497Z,97007.31
2022-08-07T20:46:28.444Z,97019.00
2022-08-07T20:48:31.076Z,97000.19
2022-08-07T20:50:38.600Z,97011.03
2022-08-07T20:52:51.475Z,97012.88
2022-08-07T20:54:57.062Z,97023.38
2022-08-07T20:57:04.499Z,97021.72
2022-08-07T20:59:27.128Z,97020.91
2022-08-07T21:01:45.308Z,97025.81
2022-08-07T21:04:21.973Z,97024.41
2022-08-07T21:06:28.278Z,97027.22
2022-08-07T21:08:40.877Z,97021.78
2022-08-07T21:10:46.270Z,97024.22
2022-08-07T21:12:50.556Z,97005.53
2022-08-07T21:15:00.848Z,97018.84
2022-08-07T21:18:03.985Z,97019.66
2022-08-07T21:20:01.048Z,97017.47
2022-08-07T21:22:03.700Z,97016.38
2022-08-07T21:24:12.080Z,97013.38
2022-08-07T21:26:27.314Z,97024.75
2022-08-07T21:28:48.516Z,97026.38
2022-08-07T21:31:03.576Z,97024.19
2022-08-07T21:33:15.815Z,97032.03
2022-08-07T21:35:34.565Z,97021.47
2022-08-07T21:38:00.367Z,97034.16
2022-08-07T21:40:08.608Z,97039.56
2022-08-07T21:42:46.573Z,97037.16
2022-08-07T21:44:57.864Z,97036.88
2022-08-07T21:47:12.274Z,97040.41
2022-08-07T21:50:01.231Z,97026.88
2022-08-07T21:52:11.353Z,97034.69
2022-08-07T21:54:39.270Z,97036.34
2022-08-07T21:57:31.444Z,97027.13
2022-08-07T22:00:03.067Z,97027.69
2022-08-07T22:02:14.266Z,97033.13
2022-08-07T22:04:20.332Z,97042.84
2022-08-07T22:06:31.482Z,97034.78
2022-08-07T22:08:43.807Z,97034.81
2022-08-07T22:10:50.551Z,97043.75
2022-08-07T22:12:56.640Z,97031.31
2022-08-07T22:16:44.473Z,97032.63
2022-08-07T22:17:36.818Z,97038.03
2022-08-07T22:19:57.277Z,97042.34
2022-08-07T22:22:18.175Z,97041.28
2022-08-07T22:24:32.949Z,97038.31
2022-08-07T22:26:44.712Z,97036.41
2022-08-07T22:28:53.321Z,97039.66
2022-08-07T22:31:05.113Z,97034.28
2022-08-07T22:33:10.914Z,97049.22
2022-08-07T22:35:14.068Z,97051.41
2022-08-07T22:38:04.524Z,97038.75
2022-08-07T22:40:05.101Z,97037.66
2022-08-07T22:42:19.863Z,97044.16
2022-08-07T22:44:34.479Z,97045.03
2022-08-07T22:47:06.324Z,97049.63
2022-08-07T22:49:26.134Z,97059.59
2022-08-07T22:51:53.968Z,97053.09
2022-08-07T22:54:18.079Z,97042.28
2022-08-07T22:56:35.053Z,97049.06
2022-08-07T22:59:18.426Z,97047.22
2022-08-07T23:01:42.164Z,97048.59
2022-08-07T23:04:09.427Z,97057.78
2022-08-07T23:06:29.630Z,97056.97
2022-08-07T23:08:54.275Z,97059.94
2022-08-07T23:11:41.360Z,97061.56
2022-08-07T23:14:15.432Z,97068.13
2022-08-07T23:16:44.431Z,97058.97
2022-08-07T23:19:11.283Z,97073.00
2022-08-07T23:21:29.805Z,97059.22
2022-08-07T23:24:05.709Z,97064.06
2022-08-07T23:26:23.403Z,97054.88
2022-08-07T23:28:56.286Z,97058.13
2022-08-07T23:31:42.743Z,97056.00
2022-08-07T23:34:35.633Z,97060.63
2022-08-07T23:36:43.151Z,97062.25
2022-08-07T23:38:58.736Z,97054.16
2022-08-07T23:41:17.301Z,97054.44
2022-08-07T23:43:52.649Z,97053.88
2022-08-07T23:46:13.582Z,97067.13
2022-08-07T23:48:56.227Z,97060.06
2022-08-07T23:52:57.908Z,97063.63
2022-08-07T23:53:50.942Z,97073.59
2022-08-07T23:56:11.640Z,97071.94
2022-08-07T23:58:37.224Z,97073.34
